createdAt,value
2022-09-02T00:01:28.040Z,89.02
2022-09-02T00:04:05.504Z,89.20
2022-09-02T00:06:33.692Z,89.45
2022-09-02T00:09:01.167Z,89.30
2022-09-02T00:11:31.544Z,89.25
2022-09-02T00:14:00.369Z,89.16
2022-09-02T00:16:27.155Z,89.19
2022-09-02T00:18:54.372Z,89.81
2022-09-02T00:21:21.937Z,89.88
2022-09-02T00:23:49.417Z,89.39
2022-09-02T00:26:16.676Z,89.90
2022-09-02T00:28:51.102Z,89.86
2022-09-02T00:31:25.290Z,89.77
2022-09-02T00:33:53.553Z,89.67
2022-09-02T00:36:20.562Z,89.85
2022-09-02T00:38:47.548Z,89.96
2022-09-02T00:41:14.710Z,90.04
2022-09-02T00:44:03.619Z,90.23
2022-09-02T00:46:33.071Z,89.70
2022-09-02T00:49:14.705Z,90.31
2022-09-02T00:51:54.972Z,90.01
2022-09-02T00:54:24.298Z,89.77
2022-09-02T00:56:53.818Z,89.68
2022-09-02T00:59:52.070Z,89.41
2022-09-02T01:02:24.234Z,89.76
2022-09-02T01:04:56.970Z,89.73
2022-09-02T01:07:29.525Z,89.86
2022-09-02T01:09:59.401Z,89.83
2022-09-02T01:12:27.421Z,89.86
2022-09-02T01:14:54.383Z,90.09
2022-09-02T01:17:21.112Z,90.10
2022-09-02T01:19:52.143Z,90.52
2022-09-02T01:22:28.288Z,89.84
2022-09-02T01:25:00.017Z,89.50
2022-09-02T01:27:27.605Z,89.90
2022-09-02T01:29:57.801Z,90.08
2022-09-02T01:32:25.975Z,90.04
2022-09-02T01:34:54.138Z,90.11
2022-09-02T01:37:21.640Z,89.72
2022-09-02T01:39:49.421Z,89.69
2022-09-02T01:42:16.710Z,90.01
2022-09-02T01:44:46.335Z,90.16
2022-09-02T01:47:16.120Z,89.93
2022-09-02T01:49:43.474Z,90.15
2022-09-02T01:52:11.608Z,90.25
2022-09-02T01:54:38.943Z,90.54
2022-09-02T01:57:07.806Z,90.79
2022-09-02T01:59:34.735Z,91.03
2022-09-02T02:02:01.641Z,90.91
2022-09-02T02:04:28.782Z,90.68
2022-09-02T02:06:57.184Z,90.40
2022-09-02T02:09:24.083Z,90.43
2022-09-02T02:11:52.986Z,90.11
2022-09-02T02:14:20.182Z,89.64
2022-09-02T02:16:49.196Z,90.14
2022-09-02T02:19:16.047Z,89.97
2022-09-02T02:21:43.223Z,89.96
2022-09-02T02:24:10.349Z,89.88
2022-09-02T02:26:37.242Z,90.01
2022-09-02T02:29:05.923Z,90.03
2022-09-02T02:31:34.179Z,90.29
2022-09-02T02:34:01.956Z,90.59
2022-09-02T02:36:28.944Z,90.19
2022-09-02T02:38:56.024Z,90.22
2022-09-02T02:41:23.913Z,89.63
2022-09-02T02:43:50.723Z,89.90
2022-09-02T02:46:19.229Z,90.48
2022-09-02T02:48:46.375Z,90.07
2022-09-02T02:51:13.607Z,90.87
2022-09-02T02:53:40.558Z,91.07
2022-09-02T02:56:08.030Z,90.90
2022-09-02T02:58:34.914Z,91.32
2022-09-02T03:01:02.304Z,91.37
2022-09-02T03:03:32.041Z,90.72
2022-09-02T03:05:59.065Z,89.94
2022-09-02T03:08:28.286Z,90.72
2022-09-02T03:10:57.850Z,89.54
2022-09-02T03:13:27.394Z,90.35
2022-09-02T03:15:56.983Z,90.25
2022-09-02T03:18:24.112Z,90.66
2022-09-02T03:20:51.436Z,90.32
2022-09-02T03:23:18.973Z,90.48
2022-09-02T03:25:48.629Z,90.09
2022-09-02T03:28:33.710Z,90.28
2022-09-02T03:31:02.684Z,90.29
2022-09-02T03:33:29.565Z,90.25
2022-09-02T03:35:57.310Z,89.63
2022-09-02T03:38:26.178Z,89.57
2022-09-02T03:40:53.095Z,89.70
2022-09-02T03:43:19.947Z,89.32
2022-09-02T03:45:49.140Z,89.59
2022-09-02T03:48:16.178Z,90.29
2022-09-02T03:50:47.355Z,89.89
2022-09-02T03:53:20.163Z,89.79
2022-09-02T03:55:52.363Z,89.68
2022-09-02T03:58:23.218Z,89.83
2022-09-02T04:00:54.900Z,89.56
2022-09-02T04:03:23.887Z,89.49
2022-09-02T04:05:52.522Z,89.70
2022-09-02T04:08:21.682Z,89.23
2022-09-02T04:10:49.564Z,89.62
2022-09-02T04:13:17.330Z,90.21
2022-09-02T04:15:48.053Z,89.29
2022-09-02T04:18:18.006Z,89.40
2022-09-02T04:20:45.349Z,90.08
2022-09-02T04:23:12.864Z,90.16
2022-09-02T04:25:44.126Z,89.71
2022-09-02T04:28:13.239Z,90.31
2022-09-02T04:30:42.593Z,90.27
2022-09-02T04:33:11.812Z,89.81
2022-09-02T04:35:48.599Z,89.88
2022-09-02T04:38:18.079Z,90.40
2022-09-02T04:40:47.836Z,90.22
2022-09-02T04:43:18.300Z,90.06
2022-09-02T04:45:46.954Z,90.20
2022-09-02T04:48:16.249Z,90.69
2022-09-02T04:50:43.590Z,89.77
2022-09-02T04:53:11.919Z,89.63
2022-09-02T04:55:42.507Z,90.42
2022-09-02T04:58:11.704Z,90.23
2022-09-02T05:00:39.504Z,90.48
2022-09-02T05:03:11.402Z,90.00
2022-09-02T05:05:39.456Z,90.68
2022-09-02T05:08:08.014Z,89.94
2022-09-02T05:10:34.974Z,90.11
2022-09-02T05:13:01.793Z,90.61
2022-09-02T05:15:30.989Z,89.72
2022-09-02T05:17:58.093Z,89.99
2022-09-02T05:20:26.137Z,90.03
2022-09-02T05:22:57.284Z,89.73
2022-09-02T05:25:25.229Z,90.04
2022-09-02T05:27:52.279Z,89.46
2022-09-02T05:30:20.078Z,89.17
2022-09-02T05:32:47.254Z,89.41
2022-09-02T05:35:16.508Z,90.13
2022-09-02T05:37:43.551Z,90.32
2022-09-02T05:40:14.836Z,89.92
2022-09-02T05:42:43.708Z,90.93
2022-09-02T05:45:12.685Z,90.71
2022-09-02T05:47:43.868Z,91.08
2022-09-02T05:50:11.013Z,90.95
2022-09-02T05:52:43.040Z,91.36
2022-09-02T05:55:10.029Z,90.93
2022-09-02T05:57:38.816Z,91.40
2022-09-02T06:00:09.136Z,90.77
2022-09-02T06:02:43.585Z,91.08
2022-09-02T06:05:23.040Z,91.29
2022-09-02T06:07:58.128Z,91.22
2022-09-02T06:10:25.397Z,91.46
2022-09-02T06:12:52.964Z,91.26
2022-09-02T06:15:22.593Z,91.34
2022-09-02T06:17:50.207Z,91.44
2022-09-02T06:20:17.489Z,91.72
2022-09-02T06:22:44.708Z,92.01
2022-09-02T06:25:12.048Z,91.53
2022-09-02T06:27:40.795Z,92.09
2022-09-02T06:30:09.477Z,91.84
2022-09-02T06:32:37.563Z,91.71
2022-09-02T06:35:10.739Z,92.26
2022-09-02T06:37:38.563Z,92.45
2022-09-02T06:40:06.180Z,91.57
2022-09-02T06:42:33.843Z,92.19
2022-09-02T06:45:09.560Z,92.09
2022-09-02T06:47:38.087Z,91.74
2022-09-02T06:50:05.473Z,91.74
2022-09-02T06:52:32.724Z,91.40
2022-09-02T06:55:01.199Z,91.86
2022-09-02T06:57:34.042Z,91.57
2022-09-02T07:00:08.520Z,91.77
2022-09-02T07:02:37.812Z,91.65
2022-09-02T07:05:15.065Z,91.23
2022-09-02T07:07:45.999Z,91.03
2022-09-02T07:10:15.324Z,91.18
2022-09-02T07:12:48.045Z,91.17
2022-09-02T07:15:17.147Z,91.40
2022-09-02T07:17:44.670Z,91.18
2022-09-02T07:20:17.928Z,91.50
2022-09-02T07:25:20.277Z,91.05
2022-09-02T07:27:51.346Z,91.38
2022-09-02T07:30:19.304Z,91.45
2022-09-02T07:32:49.712Z,91.25
2022-09-02T07:35:20.008Z,91.08
2022-09-02T07:37:47.119Z,91.46
2022-09-02T07:40:15.307Z,91.74
2022-09-02T07:42:43.482Z,91.79
2022-09-02T07:45:11.632Z,91.57
2022-09-02T07:47:40.769Z,91.66
2022-09-02T07:50:19.639Z,91.22
2022-09-02T07:52:53.667Z,91.02
2022-09-02T07:55:21.983Z,90.75
2022-09-02T07:57:50.448Z,90.77
2022-09-02T08:00:20.197Z,90.67
2022-09-02T08:02:50.055Z,90.67
2022-09-02T08:05:23.401Z,90.03
2022-09-02T08:07:50.522Z,90.31
2022-09-02T08:10:17.635Z,90.54
2022-09-02T08:12:45.193Z,90.93
2022-09-02T08:15:14.792Z,90.13
2022-09-02T08:17:42.050Z,90.64
2022-09-02T08:20:12.817Z,89.92
2022-09-02T08:22:40.377Z,90.00
2022-09-02T08:25:08.360Z,90.09
2022-09-02T08:27:35.541Z,89.87
2022-09-02T08:30:03.673Z,89.92
2022-09-02T08:32:32.839Z,89.81
2022-09-02T08:35:02.843Z,89.78
2022-09-02T08:37:31.475Z,89.36
2022-09-02T08:39:58.794Z,89.64
2022-09-02T08:42:31.372Z,89.49
2022-09-02T08:45:37.657Z,89.56
2022-09-02T08:48:15.309Z,89.19
2022-09-02T08:50:45.544Z,89.01
2022-09-02T08:53:29.579Z,88.45
2022-09-02T08:55:58.994Z,88.82
2022-09-02T08:58:30.329Z,89.06
2022-09-02T09:01:06.260Z,88.32
2022-09-02T09:04:06.749Z,88.33
2022-09-02T09:07:18.191Z,88.20
2022-09-02T09:10:09.805Z,87.72
2022-09-02T09:12:42.497Z,87.09
2022-09-02T09:15:21.731Z,86.40
2022-09-02T09:17:58.548Z,85.63
2022-09-02T09:20:29.137Z,85.59
2022-09-02T09:22:59.917Z,85.77
2022-09-02T09:25:32.131Z,84.92
2022-09-02T09:28:00.874Z,85.32
2022-09-02T09:30:29.301Z,85.54
2022-09-02T09:32:59.953Z,84.21
2022-09-02T09:35:28.622Z,83.32
2022-09-02T09:37:57.504Z,82.87
2022-09-02T09:40:31.001Z,82.56
2022-09-02T09:42:59.823Z,81.86
2022-09-02T09:45:32.395Z,82.17
2022-09-02T09:48:16.785Z,82.42
2022-09-02T09:50:45.576Z,82.91
2022-09-02T09:53:20.077Z,83.99
2022-09-02T09:55:52.955Z,83.18
2022-09-02T09:58:22.060Z,83.12
2022-09-02T10:00:48.881Z,82.84
2022-09-02T10:03:26.386Z,82.54
2022-09-02T10:06:19.115Z,82.80
2022-09-02T10:08:57.392Z,82.48
2022-09-02T10:11:30.295Z,81.88
2022-09-02T10:14:04.205Z,81.01
2022-09-02T10:16:52.916Z,79.90
2022-09-02T10:19:59.758Z,80.39
2022-09-02T10:22:59.426Z,77.49
2022-09-02T10:25:56.607Z,73.22
2022-09-02T10:28:48.261Z,70.01
2022-09-02T10:31:42.048Z,69.92
2022-09-02T10:34:23.764Z,69.10
2022-09-02T10:37:20.126Z,70.07
2022-09-02T10:40:04.704Z,69.90
2022-09-02T10:42:44.301Z,69.71
2022-09-02T10:45:29.702Z,71.03
2022-09-02T10:48:39.869Z,73.58
2022-09-02T10:51:10.762Z,73.95
2022-09-02T10:53:43.479Z,74.24
2022-09-02T10:56:24.418Z,74.64
2022-09-02T10:59:05.822Z,74.65
2022-09-02T11:01:37.998Z,72.55
2022-09-02T11:04:27.999Z,74.63
2022-09-02T11:07:05.303Z,74.56
2022-09-02T11:09:43.478Z,74.65
2022-09-02T11:12:22.983Z,74.97
2022-09-02T11:15:04.974Z,77.08
2022-09-02T11:18:00.712Z,76.42
2022-09-02T11:24:19.643Z,76.87
2022-09-02T11:27:39.053Z,76.68
2022-09-02T11:30:18.537Z,76.18
2022-09-02T11:32:48.180Z,75.40
2022-09-02T11:35:20.674Z,74.69
2022-09-02T11:38:08.242Z,75.61
2022-09-02T11:43:50.448Z,75.91
2022-09-02T11:46:48.698Z,76.47
2022-09-02T11:49:34.106Z,76.09
2022-09-02T11:52:06.509Z,75.81
2022-09-02T11:54:44.511Z,77.77
2022-09-02T11:57:16.025Z,76.06
2022-09-02T11:59:51.862Z,75.69
2022-09-02T12:02:54.640Z,75.79
2022-09-02T12:05:33.488Z,77.19
2022-09-02T12:08:12.245Z,76.96
2022-09-02T12:10:39.962Z,76.00
2022-09-02T12:13:09.906Z,76.73
2022-09-02T12:15:39.216Z,76.01
2022-09-02T12:18:32.033Z,77.33
2022-09-02T12:20:59.029Z,76.61
2022-09-02T12:23:57.911Z,77.92
2022-09-02T12:26:31.535Z,78.66
2022-09-02T12:29:18.369Z,78.56
2022-09-02T12:31:50.879Z,76.47
2022-09-02T12:34:20.740Z,78.09
2022-09-02T12:36:55.309Z,77.97
2022-09-02T12:39:27.692Z,76.42
2022-09-02T12:41:57.879Z,75.85
2022-09-02T12:44:31.652Z,76.40
2022-09-02T12:47:05.967Z,78.06
2022-09-02T12:49:35.473Z,78.44
2022-09-02T12:52:23.988Z,79.02
2022-09-02T12:54:51.736Z,79.29
2022-09-02T12:57:19.278Z,79.29
2022-09-02T12:59:47.639Z,78.86
2022-09-02T13:02:31.956Z,79.46
2022-09-02T13:05:26.999Z,77.72
2022-09-02T13:08:26.129Z,78.99
2022-09-02T13:10:56.643Z,80.09
2022-09-02T13:13:47.901Z,79.97
2022-09-02T13:16:52.966Z,79.01
2022-09-02T13:19:48.389Z,78.61
2022-09-02T13:22:54.059Z,78.51
2022-09-02T13:25:37.299Z,76.68
2022-09-02T13:28:04.107Z,77.51
2022-09-02T13:30:55.778Z,76.89
2022-09-02T13:33:22.955Z,77.01
2022-09-02T13:35:56.095Z,75.70
2022-09-02T13:38:25.515Z,75.76
2022-09-02T13:40:52.743Z,75.91
2022-09-02T13:43:22.350Z,77.03
2022-09-02T13:45:50.977Z,77.68
2022-09-02T13:48:22.843Z,77.82
2022-09-02T13:50:51.965Z,76.93
2022-09-02T13:53:45.627Z,75.58
2022-09-02T13:56:31.040Z,77.27
2022-09-02T13:58:58.084Z,75.52
2022-09-02T14:01:24.940Z,75.00
2022-09-02T14:03:54.231Z,73.28
2022-09-02T14:06:28.445Z,74.34
2022-09-02T14:09:01.571Z,74.82
2022-09-02T14:11:33.490Z,73.33
2022-09-02T14:14:00.320Z,73.84
2022-09-02T14:16:35.791Z,74.03
2022-09-02T14:19:11.500Z,74.69
2022-09-02T14:21:45.988Z,74.56
2022-09-02T14:24:15.438Z,74.50
2022-09-02T14:26:47.715Z,74.81
2022-09-02T14:29:19.041Z,74.16
2022-09-02T14:31:46.488Z,74.88
2022-09-02T14:34:36.937Z,74.68
2022-09-02T14:37:18.552Z,75.22
2022-09-02T14:39:59.906Z,74.80
2022-09-02T14:42:29.480Z,74.90
2022-09-02T14:44:59.457Z,75.18
2022-09-02T14:47:28.201Z,75.37
2022-09-02T14:49:56.079Z,77.72
2022-09-02T14:52:33.466Z,77.75
2022-09-02T14:55:00.635Z,77.57
2022-09-02T14:57:28.715Z,78.29
2022-09-02T15:00:05.473Z,79.00
2022-09-02T15:02:34.753Z,79.61
2022-09-02T15:05:07.331Z,79.60
2022-09-02T15:07:34.628Z,79.38
2022-09-02T15:10:01.905Z,79.48
2022-09-02T15:12:30.142Z,79.83
2022-09-02T15:14:57.710Z,80.09
2022-09-02T15:17:25.502Z,80.13
2022-09-02T15:19:52.209Z,80.33
2022-09-02T15:22:24.389Z,80.70
2022-09-02T15:24:54.353Z,80.69
2022-09-02T15:27:21.845Z,78.88
2022-09-02T15:29:49.301Z,80.56
2022-09-02T15:32:16.346Z,79.86
2022-09-02T15:34:43.564Z,80.55
2022-09-02T15:37:13.095Z,80.67
2022-09-02T15:39:41.294Z,80.44
2022-09-02T15:42:09.593Z,80.84
2022-09-02T15:44:36.449Z,81.32
2022-09-02T15:47:04.662Z,81.45
2022-09-02T15:49:31.899Z,80.13
2022-09-02T15:51:59.550Z,80.94
2022-09-02T15:54:26.642Z,81.55
2022-09-02T15:56:58.590Z,81.65
2022-09-02T15:59:29.191Z,82.05
2022-09-02T16:01:57.372Z,82.28
2022-09-02T16:04:24.747Z,82.36
2022-09-02T16:06:54.901Z,82.39
2022-09-02T16:09:21.839Z,81.77
2022-09-02T16:11:54.295Z,81.17
2022-09-02T16:14:22.150Z,81.05
2022-09-02T16:16:56.456Z,81.92
2022-09-02T16:19:28.652Z,80.99
2022-09-02T16:21:56.791Z,81.53
2022-09-02T16:24:23.642Z,81.57
2022-09-02T16:26:51.523Z,82.02
2022-09-02T16:29:19.631Z,81.50
2022-09-02T16:32:23.711Z,81.00
2022-09-02T16:34:50.220Z,81.40
2022-09-02T16:37:17.633Z,81.44
2022-09-02T16:39:46.657Z,81.88
2022-09-02T16:42:13.628Z,82.14
2022-09-02T16:44:41.597Z,82.41
2022-09-02T16:47:08.631Z,82.57
2022-09-02T16:49:40.741Z,82.31
2022-09-02T16:52:07.672Z,82.43
2022-09-02T16:54:38.688Z,82.13
2022-09-02T16:57:07.693Z,82.07
2022-09-02T16:59:34.534Z,81.89
2022-09-02T17:02:01.537Z,83.00
2022-09-02T17:04:29.496Z,82.24
2022-09-02T17:06:56.746Z,82.05
2022-09-02T17:09:23.515Z,82.07
2022-09-02T17:11:50.312Z,81.60
2022-09-02T17:14:21.745Z,81.78
2022-09-02T17:16:49.930Z,82.19
2022-09-02T17:19:22.326Z,81.79
2022-09-02T17:21:54.712Z,81.13
2022-09-02T17:24:24.193Z,80.68
2022-09-02T17:26:54.346Z,80.42
2022-09-02T17:29:48.143Z,80.66
2022-09-02T17:32:10.346Z,80.65
2022-09-02T17:34:37.714Z,80.68
2022-09-02T17:37:05.653Z,81.16
2022-09-02T17:39:34.229Z,82.10
2022-09-02T17:42:03.000Z,82.97
2022-09-02T17:44:34.988Z,81.06
2022-09-02T17:47:07.505Z,82.34
2022-09-02T17:49:38.124Z,82.01
2022-09-02T17:52:07.638Z,83.17
2022-09-02T17:54:36.475Z,83.46
2022-09-02T17:57:12.193Z,83.47
2022-09-02T17:59:38.898Z,84.15
2022-09-02T18:02:14.553Z,83.54
2022-09-02T18:05:09.155Z,84.19
2022-09-02T18:07:38.982Z,84.46
2022-09-02T18:10:05.996Z,84.05
2022-09-02T18:12:36.082Z,83.61
2022-09-02T18:15:07.141Z,83.98
2022-09-02T18:17:41.322Z,83.64
2022-09-02T18:20:13.106Z,84.87
2022-09-02T18:23:01.476Z,83.08
2022-09-02T18:25:40.381Z,83.92
2022-09-02T18:28:55.234Z,83.55
2022-09-02T18:31:50.037Z,83.43
2022-09-02T18:34:32.332Z,84.99
2022-09-02T18:37:38.182Z,83.87
2022-09-02T18:40:44.121Z,85.02
2022-09-02T18:43:20.252Z,83.93
2022-09-02T18:45:49.931Z,84.79
2022-09-02T18:48:28.418Z,86.03
2022-09-02T18:51:35.047Z,85.79
2022-09-02T18:54:39.566Z,86.95
2022-09-02T18:57:08.245Z,88.07
2022-09-02T18:59:43.066Z,87.41
2022-09-02T19:02:28.095Z,88.25
2022-09-02T19:04:58.436Z,88.63
2022-09-02T19:07:45.336Z,88.90
2022-09-02T19:10:14.116Z,89.19
2022-09-02T19:12:42.242Z,89.64
2022-09-02T19:15:13.098Z,89.74
2022-09-02T19:17:40.664Z,89.93
2022-09-02T19:20:08.790Z,90.23
2022-09-02T19:22:41.184Z,90.36
2022-09-02T19:25:13.107Z,90.37
2022-09-02T19:27:43.783Z,89.81
2022-09-02T19:30:18.826Z,90.44
2022-09-02T19:32:50.102Z,90.82
2022-09-02T19:35:23.068Z,90.62
2022-09-02T19:37:53.264Z,90.68
2022-09-02T19:40:28.645Z,90.63
2022-09-02T19:42:55.749Z,90.82
2022-09-02T19:45:23.391Z,91.08
2022-09-02T19:48:06.659Z,90.98
2022-09-02T19:50:37.217Z,91.10
2022-09-02T19:53:04.254Z,91.23
2022-09-02T19:55:33.642Z,91.25
2022-09-02T19:58:00.545Z,91.22
2022-09-02T20:00:27.999Z,91.06
2022-09-02T20:02:56.524Z,91.47
2022-09-02T20:05:25.889Z,90.96
2022-09-02T20:07:54.943Z,91.19
2022-09-02T20:10:28.195Z,91.87
2022-09-02T20:12:57.581Z,91.62
2022-09-02T20:15:24.397Z,91.99
2022-09-02T20:17:51.125Z,91.61
2022-09-02T20:20:22.612Z,92.32
2022-09-02T20:22:55.261Z,92.11
2022-09-02T20:25:32.564Z,92.32
2022-09-02T20:28:02.289Z,92.59
2022-09-02T20:30:35.358Z,91.53
2022-09-02T20:33:17.146Z,92.12
2022-09-02T20:36:36.146Z,92.62
2022-09-02T20:39:03.864Z,92.39
2022-09-02T20:41:37.261Z,92.67
2022-09-02T20:44:28.774Z,92.35
2022-09-02T20:47:14.410Z,92.57
2022-09-02T20:50:07.154Z,92.61
2022-09-02T20:52:51.629Z,92.68
2022-09-02T20:55:25.953Z,92.48
2022-09-02T20:58:16.168Z,92.49
2022-09-02T21:01:04.589Z,92.27
2022-09-02T21:03:50.091Z,92.33
2022-09-02T21:06:16.970Z,92.37
2022-09-02T21:09:03.881Z,92.30
2022-09-02T21:11:37.376Z,92.59
2022-09-02T21:14:44.833Z,92.59
2022-09-02T21:17:19.373Z,92.13
2022-09-02T21:20:03.389Z,93.05
2022-09-02T21:22:38.991Z,93.11
2022-09-02T21:25:32.548Z,93.10
2022-09-02T21:28:09.119Z,92.98
2022-09-02T21:30:42.237Z,92.96
2022-09-02T21:33:13.910Z,92.68
2022-09-02T21:35:44.130Z,93.21
2022-09-02T21:38:19.972Z,92.49
2022-09-02T21:40:55.646Z,92.53
2022-09-02T21:43:37.269Z,93.30
2022-09-02T21:46:30.008Z,92.74
2022-09-02T21:49:13.275Z,92.90
2022-09-02T21:51:53.545Z,93.17
2022-09-02T21:54:38.853Z,93.21
2022-09-02T21:57:24.480Z,92.18
2022-09-02T22:00:02.519Z,92.14
2022-09-02T22:02:47.539Z,92.13
2022-09-02T22:05:29.911Z,92.81
2022-09-02T22:08:34.237Z,92.46
2022-09-02T22:11:10.023Z,92.11
2022-09-02T22:13:42.125Z,92.95
2022-09-02T22:16:24.681Z,92.57
2022-09-02T22:19:05.356Z,92.67
2022-09-02T22:21:47.165Z,92.80
2022-09-02T22:24:22.282Z,92.23
2022-09-02T22:26:57.885Z,92.24
2022-09-02T22:29:36.556Z,91.99
2022-09-02T22:32:08.821Z,92.66
2022-09-02T22:34:42.602Z,91.88
2022-09-02T22:37:18.904Z,92.30
2022-09-02T22:39:50.578Z,92.19
2022-09-02T22:42:25.763Z,92.92
2022-09-02T22:45:33.551Z,92.80
2022-09-02T22:48:34.850Z,92.32
2022-09-02T22:51:31.403Z,92.58
2022-09-02T22:53:59.194Z,92.38
2022-09-02T22:57:01.739Z,92.37
2022-09-02T22:59:35.719Z,92.67
2022-09-02T23:02:26.602Z,92.90
2022-09-02T23:05:42.185Z,93.05
2022-09-02T23:08:10.005Z,93.09
2022-09-02T23:10:47.430Z,93.01
2022-09-02T23:13:38.838Z,92.89
2022-09-02T23:16:26.339Z,92.80
2022-09-02T23:19:19.606Z,92.38
2022-09-02T23:21:54.378Z,92.22
2022-09-02T23:25:02.866Z,92.82
2022-09-02T23:27:47.345Z,92.60
2022-09-02T23:30:14.744Z,92.81
2022-09-02T23:33:06.334Z,93.06
2022-09-02T23:35:46.154Z,93.11
2022-09-02T23:38:41.162Z,92.81
2022-09-02T23:41:10.692Z,92.38
2022-09-02T23:43:39.543Z,92.75
2022-09-02T23:46:29.560Z,92.18
2022-09-02T23:49:10.907Z,92.83
2022-09-02T23:51:58.201Z,92.46
2022-09-02T23:55:00.226Z,92.51
2022-09-02T23:57:49.075Z,91.82
